Copake Falls, New York
Current Conditions -  °F | °C
As of 6:54 AM on Friday 21 Nov 2014 (Local Time) from KPSF Reporting Station
Broken Clouds Broken Clouds  
Wind Chill:   Ceiling: 3600
Heat Index: 19°   Visibility: 10mi
Dew Point:   Wind: 16mph
Humidity: 62%   Direction: 280°W
Pressure: 30.01"   Gusts: 23mph
Location:  42.12°N, 73.53°W
Report Text: KPSF 211154Z AUTO 28014G20KT 10SM BKN036 M07/M13 A3001 RMK AO2 SLP182 T10721133 11056 21072 51027
Loading
Personal Weather Stations






























Interactive Weather Map New forecast layout! Learn more

10-Day Weather Forecast

Advertisements
Track Severe Weather on mobile